Albion, Washington
Current Conditions -  °F | °C
As of 6:15 AM on Thursday 23 Oct 2014 (Local Time) from KPUW Reporting Station
Light Rain Light Rain  
Wind Chill: 50°   Ceiling: 4800
Heat Index: 50°   Visibility: 7mi
Dew Point: 47°   Wind: 3mph
Humidity: 89%   Direction: 40°NE
Pressure: 29.84"   Gusts: NA
Location:  46.79°N, 117.25°W
Report Text: KPUW 231315Z AUTO 04003KT 7SM -RA SCT015 OVC048 10/08 A2984 RMK AO2 P0002 T01000083
Loading
Personal Weather Stations






























Interactive Weather Map
Tropical Storm Tracking
New forecast layout! Learn more

10-Day Weather Forecast

Advertisements
Track Severe Weather on mobile